Tzoanna Vi — SYHY — position and weather

sailwx.info

Track history (hours):
 
Tides and Currents Weather Stations Pressure Air Temp Water Temp Dewpoint Dewpoint Depression Visibility Wind Speed Wind Dir Waves Ship Positions

Tzoanna Vi

Last reported at 2014-Dec-08 15:08 UTC. Time now 2014-Dec-20 02:18 UTC.
Position N 37°30' E 024°05'.
Warning: this ship's position is 11 days out of date.

Length 84 m; draft 5.5 m.

Type: Cargo ship. MMSI: 237991700.

Date/timePositionNaut miles runAvg speedWind from/ knotsBaromVisibWave heightAir tempDewpointWater temp
2014-Dec-08 15:08N 37°30' E 024°05'31 8.4
2014-Dec-08 11:29N 37°54' E 024°30'  
2014-Dec-04 09:10N 37°55' E 024°37'5 8.9
2014-Dec-04 08:33N 37°50' E 024°37'9 9.2
2014-Dec-04 07:33N 37°41' E 024°38'9 8.7
2014-Dec-04 06:33N 37°32' E 024°39'8 8.5
2014-Dec-04 05:33N 37°24' E 024°42'9 8.7
2014-Dec-04 04:33N 37°16' E 024°45'9 8.9
2014-Dec-04 03:33N 37°07' E 024°48'9 9.0
2014-Dec-04 02:33N 36°58' E 024°51'9 8.9
2014-Dec-04 01:33N 36°50' E 024°54'9 8.9
2014-Dec-04 00:33N 36°41' E 024°57'9 8.8
2014-Dec-03 23:33N 36°33' E 025°01'9 8.6
2014-Dec-03 22:33N 36°25' E 025°05'8 8.4
2014-Dec-03 21:33N 36°17' E 025°09'8 8.4
2014-Dec-03 20:33N 36°11' E 025°15'8 7.9
2014-Dec-03 19:33N 36°04' E 025°20'10 7.9
2014-Dec-03 18:21N 35°56' E 025°26'7 8.3
2014-Dec-03 17:33N 35°50' E 025°30'9 8.5
2014-Dec-03 16:33N 35°42' E 025°34'9 9.0
2014-Dec-03 15:33N 35°34' E 025°40'9 8.9
2014-Dec-03 14:33N 35°26' E 025°45'16 1.7
2014-Dec-03 05:16N 35°11' E 025°51'2 3.0
2014-Dec-03 04:33N 35°12' E 025°49'1 1.0
2014-Dec-03 03:32N 35°12' E 025°47'2 1.7
2014-Dec-03 02:17N 35°14' E 025°48'5 6.3
2014-Dec-03 01:33N 35°19' E 025°48'7 7.4
2014-Dec-03 00:33N 35°26' E 025°45'7 6.8
2014-Dec-02 23:33N 35°32' E 025°41'6 5.9
2014-Dec-02 22:33N 35°37' E 025°38'156 8.9
2014-Dec-02 05:04N 37°58' E 024°13'5 9.3
2014-Dec-02 04:33N 38°02' E 024°10'5 0.1
2014-Nov-30 05:18N 37°58' E 024°08'7 8.8
2014-Nov-30 04:33N 37°51' E 024°09'9 8.8
2014-Nov-30 03:33N 37°42' E 024°11'9 8.9
2014-Nov-30 02:33N 37°34' E 024°13'9 8.9
2014-Nov-30 01:33N 37°25' E 024°15'9 8.5
2014-Nov-30 00:33N 37°16' E 024°16'9 8.9
2014-Nov-29 23:32N 37°07' E 024°18'9 9.2
2014-Nov-29 22:33N 36°59' E 024°20'9 9.1
2014-Nov-29 21:33N 36°50' E 024°22'8 7.7
2014-Nov-29 20:33N 36°43' E 024°26'1 0.1
2014-Nov-29 10:13N 36°43' E 024°28'0 0.0
2014-Nov-29 08:07N 36°43' E 024°28'1 1.1
2014-Nov-29 07:33N 36°42' E 024°27'9 8.9
2014-Nov-29 06:33N 36°51' E 024°23'9 9.3
2014-Nov-29 05:33N 36°60' E 024°22'10 9.6
2014-Nov-29 04:33N 37°10' E 024°24'1010.0
2014-Nov-29 03:33N 37°19' E 024°28'1010.0
2014-Nov-29 02:33N 37°29' E 024°31'10 9.8
2014-Nov-29 01:33N 37°38' E 024°32'1010.2
2014-Nov-29 00:32N 37°49' E 024°34'  
Track history (hours):
 
Tides and Currents Weather Stations Pressure Air Temp Water Temp Dewpoint Dewpoint Depression Visibility Wind Speed Wind Dir Waves Ship Positions

Tzoanna Vi

Last reported at 2014-Dec-08 15:08 UTC. Time now 2014-Dec-20 02:18 UTC.
Position N 37°30' E 024°05'.
Warning: this ship's position is 11 days out of date.

Length 84 m; draft 5.5 m.

Type: Cargo ship. MMSI: 237991700.

Date/timePositionNaut miles runAvg speedWind from/ knotsBaromVisibWave heightAir tempDewpointWater temp
2014-Dec-08 15:08N 37°30' E 024°05'31 8.4
2014-Dec-08 11:29N 37°54' E 024°30'  
2014-Dec-04 09:10N 37°55' E 024°37'5 8.9
2014-Dec-04 08:33N 37°50' E 024°37'9 9.2
2014-Dec-04 07:33N 37°41' E 024°38'9 8.7
2014-Dec-04 06:33N 37°32' E 024°39'8 8.5
2014-Dec-04 05:33N 37°24' E 024°42'9 8.7
2014-Dec-04 04:33N 37°16' E 024°45'9 8.9
2014-Dec-04 03:33N 37°07' E 024°48'9 9.0
2014-Dec-04 02:33N 36°58' E 024°51'9 8.9
2014-Dec-04 01:33N 36°50' E 024°54'9 8.9
2014-Dec-04 00:33N 36°41' E 024°57'9 8.8
2014-Dec-03 23:33N 36°33' E 025°01'9 8.6
2014-Dec-03 22:33N 36°25' E 025°05'8 8.4
2014-Dec-03 21:33N 36°17' E 025°09'8 8.4
2014-Dec-03 20:33N 36°11' E 025°15'8 7.9
2014-Dec-03 19:33N 36°04' E 025°20'10 7.9
2014-Dec-03 18:21N 35°56' E 025°26'7 8.3
2014-Dec-03 17:33N 35°50' E 025°30'9 8.5
2014-Dec-03 16:33N 35°42' E 025°34'9 9.0
2014-Dec-03 15:33N 35°34' E 025°40'9 8.9
2014-Dec-03 14:33N 35°26' E 025°45'16 1.7
2014-Dec-03 05:16N 35°11' E 025°51'2 3.0
2014-Dec-03 04:33N 35°12' E 025°49'1 1.0
2014-Dec-03 03:32N 35°12' E 025°47'2 1.7
2014-Dec-03 02:17N 35°14' E 025°48'5 6.3
2014-Dec-03 01:33N 35°19' E 025°48'7 7.4
2014-Dec-03 00:33N 35°26' E 025°45'7 6.8
2014-Dec-02 23:33N 35°32' E 025°41'6 5.9
2014-Dec-02 22:33N 35°37' E 025°38'156 8.9
2014-Dec-02 05:04N 37°58' E 024°13'5 9.3
2014-Dec-02 04:33N 38°02' E 024°10'5 0.1
2014-Nov-30 05:18N 37°58' E 024°08'7 8.8
2014-Nov-30 04:33N 37°51' E 024°09'9 8.8
2014-Nov-30 03:33N 37°42' E 024°11'9 8.9
2014-Nov-30 02:33N 37°34' E 024°13'9 8.9
2014-Nov-30 01:33N 37°25' E 024°15'9 8.5
2014-Nov-30 00:33N 37°16' E 024°16'9 8.9
2014-Nov-29 23:32N 37°07' E 024°18'9 9.2
2014-Nov-29 22:33N 36°59' E 024°20'9 9.1
2014-Nov-29 21:33N 36°50' E 024°22'8 7.7
2014-Nov-29 20:33N 36°43' E 024°26'1 0.1
2014-Nov-29 10:13N 36°43' E 024°28'0 0.0
2014-Nov-29 08:07N 36°43' E 024°28'1 1.1
2014-Nov-29 07:33N 36°42' E 024°27'9 8.9
2014-Nov-29 06:33N 36°51' E 024°23'9 9.3
2014-Nov-29 05:33N 36°60' E 024°22'10 9.6
2014-Nov-29 04:33N 37°10' E 024°24'1010.0
2014-Nov-29 03:33N 37°19' E 024°28'1010.0
2014-Nov-29 02:33N 37°29' E 024°31'10 9.8
2014-Nov-29 01:33N 37°38' E 024°32'1010.2
2014-Nov-29 00:32N 37°49' E 024°34'  

Dump ship's entire track history